CST,Max TemperatureF,Mean TemperatureF,Min TemperatureF,Max Dew PointF,MeanDew PointF,Min DewpointF,Max Humidity, Mean Humidity, Min Humidity, Max Sea Level PressureIn, Mean Sea Level PressureIn, Min Sea Level PressureIn, Max VisibilityMiles, Mean VisibilityMiles, Min VisibilityMiles, Max Wind SpeedMPH, Mean Wind SpeedMPH, Max Gust SpeedMPH,PrecipitationIn, CloudCover, Events, WindDirDegrees
2012-12-1,69,54,39,54,46,37,100,78,58,30.12,30.06,29.95,10,8,2,14,6,23,0.00,4,,160
2012-12-2,73,67,61,59,56,52,90,72,55,30.04,30.00,29.95,10,10,9,12,7,20,0.00,4,Rain,196
2012-12-3,72,66,61,59,57,54,90,74,55,30.02,29.96,29.88,10,10,10,20,8,32,0.00,2,,172
2012-12-4,64,50,35,56,46,33,94,81,57,30.31,30.11,29.94,10,9,4,13,7,,0.16,5,Rain,329
2012-12-5,55,42,30,37,34,29,96,76,49,30.40,30.30,30.17,10,9,2,7,1,,0.00,0,,105
2012-12-6,51,44,36,41,38,31,89,78,66,30.15,30.02,29.94,10,10,10,7,4,,0.00,4,,139
2012-12-7,57,50,43,50,47,40,100,88,72,29.93,29.87,29.81,10,6,0,7,2,,0.04,7,Fog-Rain,142
2012-12-8,48,46,44,48,43,39,100,88,76,30.01,29.95,29.87,10,7,2,10,7,,0.07,8,Rain,358
2012-12-9,51,47,39,48,43,31,100,89,73,29.94,29.84,29.77,10,4,0,20,5,26,0.17,8,Fog-Rain,331
2012-12-10,37,32,27,30,21,18,76,69,61,30.09,29.99,29.89,10,10,10,18,13,24,0.00,8,,299
2012-12-11,41,31,21,21,19,17,88,64,38,30.23,30.15,30.10,10,10,10,9,3,,0.00,0,,182
2012-12-12,50,36,21,26,22,18,89,69,38,30.36,30.30,30.25,10,10,10,8,2,,0.00,0,,154
2012-12-13,54,41,28,29,24,21,81,60,28,30.35,30.28,30.21,10,10,10,15,7,21,0.00,0,,160
2012-12-14,55,40,26,38,30,23,88,64,40,30.25,30.15,29.98,10,10,10,8,4,,0.02,2,Rain,152
2012-12-15,62,54,45,50,46,41,93,80,60,29.90,29.74,29.60,10,9,4,15,12,31,0.29,6,Rain,179
2012-12-16,54,48,41,45,40,37,89,78,66,29.77,29.72,29.65,10,10,8,8,5,,0.00,2,,283
2012-12-17,41,40,39,39,37,32,93,87,73,29.82,29.72,29.68,10,6,2,10,7,,0.00,8,Rain,336
2012-12-18,57,46,34,36,33,30,89,69,42,29.93,29.79,29.67,10,10,8,16,5,21,0.00,1,,192
2012-12-19,53,40,30,46,36,28,89,80,71,30.01,29.83,29.55,10,9,5,14,6,20,0.04,5,Rain-Thunderstorm,104
2012-12-20,55,42,28,52,34,17,94,77,61,29.98,29.55,29.26,10,7,1,32,15,47,0.50,7,Rain-Snow,252
2012-12-21,36,31,26,17,15,13,63,53,43,30.32,30.22,30.00,10,10,10,22,16,33,0.00,0,,292
2012-12-22,44,32,19,25,20,15,85,61,41,30.32,30.16,29.97,10,10,10,12,4,,0.00,0,,152
2012-12-23,51,40,28,31,28,24,85,75,43,29.98,29.93,29.87,10,10,10,7,3,,0.00,1,,18
2012-12-24,35,30,24,31,25,15,93,81,69,30.17,29.98,29.83,10,7,3,16,9,,0.00,7,,325
2012-12-25,34,29,24,27,22,16,81,74,69,30.25,30.15,30.06,10,9,6,18,10,23,0.00,6,,15
2012-12-26,33,30,28,25,23,21,76,72,66,30.19,30.05,29.92,10,10,10,25,19,33,0.00,8,,331
2012-12-27,34,31,28,23,22,21,78,71,61,30.23,30.17,30.10,10,10,10,12,3,,0.00,7,,120
2012-12-28,36,32,28,31,28,24,96,85,75,30.09,29.98,29.90,10,6,1,7,4,,0.07,8,Snow,114
2012-12-29,33,28,21,29,24,15,87,80,63,30.37,30.10,29.94,10,7,2,20,11,29,0.00,6,Snow,295
2012-12-30,36,25,14,25,20,11,88,73,57,30.45,30.36,30.23,10,9,7,9,2,,0.00,0,,165
2012-12-31,37,35,33,32,30,21,96,86,57,30.25,30.13,30.08,10,3,0,9,3,,0.19,7,Fog-Snow,220